createdAt,value
2023-03-02T00:02:10.643Z,69.95
2023-03-02T00:04:47.441Z,70.20
2023-03-02T00:07:21.460Z,69.98
2023-03-02T00:09:49.836Z,70.14
2023-03-02T00:12:18.317Z,69.85
2023-03-02T00:14:46.712Z,69.41
2023-03-02T00:17:15.090Z,69.28
2023-03-02T00:19:45.118Z,69.12
2023-03-02T00:22:13.596Z,68.86
2023-03-02T00:24:41.818Z,68.84
2023-03-02T00:27:10.172Z,69.04
2023-03-02T00:29:38.442Z,69.38
2023-03-02T00:32:07.095Z,69.63
2023-03-02T00:34:35.536Z,69.99
2023-03-02T00:37:03.798Z,71.21
2023-03-02T00:39:32.396Z,71.82
2023-03-02T00:42:01.104Z,71.89
2023-03-02T00:44:29.569Z,71.55
2023-03-02T00:46:58.620Z,71.84
2023-03-02T00:49:27.048Z,71.75
2023-03-02T00:51:55.231Z,72.04
2023-03-02T00:54:23.781Z,72.52
2023-03-02T00:56:52.523Z,73.00
2023-03-02T00:59:27.551Z,72.71
2023-03-02T01:02:32.195Z,73.15
2023-03-02T01:05:00.854Z,73.01
2023-03-02T01:07:29.233Z,72.70
2023-03-02T01:09:57.619Z,73.15
2023-03-02T01:12:26.008Z,73.12
2023-03-02T01:14:55.314Z,73.18
2023-03-02T01:17:25.468Z,73.54
2023-03-02T01:19:54.757Z,73.40
2023-03-02T01:22:23.234Z,73.51
2023-03-02T01:24:52.126Z,73.54
2023-03-02T01:27:20.616Z,73.49
2023-03-02T01:29:50.844Z,73.60
2023-03-02T01:32:19.545Z,73.35
2023-03-02T01:34:49.452Z,73.51
2023-03-02T01:37:17.733Z,73.46
2023-03-02T01:39:47.068Z,73.22
2023-03-02T01:42:16.006Z,72.90
2023-03-02T01:44:57.156Z,72.85
2023-03-02T01:47:32.702Z,72.60
2023-03-02T01:50:23.169Z,72.69
2023-03-02T01:52:55.803Z,72.26
2023-03-02T01:55:29.594Z,72.04
2023-03-02T01:57:59.660Z,71.74
2023-03-02T02:00:33.398Z,71.78
2023-03-02T02:03:09.532Z,71.53
2023-03-02T02:05:41.187Z,71.64
2023-03-02T02:08:10.413Z,71.41
2023-03-02T02:10:40.850Z,71.41
2023-03-02T02:13:11.454Z,70.89
2023-03-02T02:15:41.636Z,71.11
2023-03-02T02:18:10.604Z,71.16
2023-03-02T02:20:47.964Z,70.97
2023-03-02T02:23:28.206Z,70.89
2023-03-02T02:26:00.029Z,71.10
2023-03-02T02:28:35.030Z,70.96
2023-03-02T02:31:09.466Z,70.64
2023-03-02T02:33:41.310Z,70.94
2023-03-02T02:36:17.566Z,70.97
2023-03-02T02:38:51.991Z,70.99
2023-03-02T02:41:26.617Z,70.90
2023-03-02T02:43:56.305Z,71.04
2023-03-02T02:46:25.913Z,71.07
2023-03-02T02:48:54.436Z,71.04
2023-03-02T02:51:26.935Z,71.53
2023-03-02T02:54:00.012Z,71.69
2023-03-02T02:56:36.375Z,71.53
2023-03-02T02:59:07.948Z,71.33
2023-03-02T03:01:36.452Z,71.51
2023-03-02T03:04:06.283Z,71.50
2023-03-02T03:06:42.686Z,71.26
2023-03-02T03:09:12.368Z,71.39
2023-03-02T03:11:50.838Z,71.53
2023-03-02T03:14:25.144Z,71.59
2023-03-02T03:16:54.136Z,71.93
2023-03-02T03:19:29.391Z,72.13
2023-03-02T03:22:01.758Z,72.54
2023-03-02T03:24:34.753Z,72.39
2023-03-02T03:27:07.578Z,72.83
2023-03-02T03:29:39.595Z,72.86
2023-03-02T03:32:09.567Z,73.20
2023-03-02T03:34:41.163Z,73.17
2023-03-02T03:37:19.899Z,72.94
2023-03-02T03:39:48.589Z,72.82
2023-03-02T03:42:18.402Z,72.64
2023-03-02T03:44:47.706Z,72.61
2023-03-02T03:47:17.017Z,72.81
2023-03-02T03:49:45.602Z,73.20
2023-03-02T03:52:13.883Z,72.83
2023-03-02T03:54:42.471Z,72.96
2023-03-02T03:57:12.298Z,73.13
2023-03-02T03:59:41.193Z,72.83
2023-03-02T04:02:09.971Z,72.86
2023-03-02T04:04:41.941Z,72.65
2023-03-02T04:07:16.572Z,72.13
2023-03-02T04:09:46.012Z,71.99
2023-03-02T04:12:15.894Z,72.01
2023-03-02T04:14:48.676Z,72.00
2023-03-02T04:17:17.368Z,71.75
2023-03-02T04:19:48.223Z,71.83
2023-03-02T04:22:17.420Z,72.16
2023-03-02T04:24:47.823Z,72.16
2023-03-02T04:27:16.844Z,72.25
2023-03-02T04:29:45.641Z,72.53
2023-03-02T04:32:17.534Z,72.76
2023-03-02T04:34:50.191Z,72.70
2023-03-02T04:37:19.318Z,72.68
2023-03-02T04:39:51.618Z,72.99
2023-03-02T04:42:21.295Z,72.81
2023-03-02T04:44:50.078Z,72.89
2023-03-02T04:47:19.487Z,72.84
2023-03-02T04:49:50.743Z,72.70
2023-03-02T04:52:19.135Z,72.76
2023-03-02T04:54:48.025Z,72.76
2023-03-02T04:57:16.611Z,72.95
2023-03-02T04:59:44.795Z,73.09
2023-03-02T05:02:13.392Z,73.09
2023-03-02T05:04:42.511Z,73.36
2023-03-02T05:07:11.172Z,73.54
2023-03-02T05:09:39.654Z,73.57
2023-03-02T05:12:08.243Z,73.46
2023-03-02T05:14:36.538Z,73.70
2023-03-02T05:17:04.870Z,73.31
2023-03-02T05:19:33.293Z,73.29
2023-03-02T05:22:02.371Z,73.47
2023-03-02T05:24:30.986Z,73.59
2023-03-02T05:26:59.268Z,73.50
2023-03-02T05:29:27.650Z,73.55
2023-03-02T05:31:55.989Z,73.52
2023-03-02T05:34:24.339Z,73.33
2023-03-02T05:36:52.511Z,73.08
2023-03-02T05:39:20.824Z,73.01
2023-03-02T05:41:49.099Z,72.74
2023-03-02T05:44:17.660Z,72.87
2023-03-02T05:46:46.696Z,72.68
2023-03-02T05:49:15.543Z,72.72
2023-03-02T05:51:44.035Z,72.54
2023-03-02T05:54:12.944Z,72.41
2023-03-02T05:56:41.728Z,72.36
2023-03-02T05:59:10.204Z,72.33
2023-03-02T06:01:39.028Z,72.46
2023-03-02T06:04:07.502Z,72.07
2023-03-02T06:06:36.154Z,72.02
2023-03-02T06:09:04.774Z,71.91
2023-03-02T06:11:32.951Z,71.80
2023-03-02T06:14:01.331Z,71.75
2023-03-02T06:16:29.764Z,71.59
2023-03-02T06:18:57.995Z,71.59
2023-03-02T06:21:26.385Z,71.41
2023-03-02T06:23:57.439Z,71.22
2023-03-02T06:26:26.022Z,71.12
2023-03-02T06:28:54.409Z,70.99
2023-03-02T06:31:25.080Z,71.19
2023-03-02T06:33:56.695Z,71.44
2023-03-02T06:36:25.840Z,71.45
2023-03-02T06:38:54.642Z,71.40
2023-03-02T06:41:23.283Z,70.75
2023-03-02T06:43:51.776Z,70.95
2023-03-02T06:46:20.425Z,70.04
2023-03-02T06:48:49.049Z,69.28
2023-03-02T06:51:18.158Z,68.85
2023-03-02T06:53:46.457Z,68.93
2023-03-02T06:56:15.432Z,68.25
2023-03-02T06:58:44.019Z,67.60
2023-03-02T07:01:12.431Z,67.37
2023-03-02T07:03:40.893Z,67.06
2023-03-02T07:06:11.628Z,67.22
2023-03-02T07:08:41.250Z,67.09
2023-03-02T07:11:12.281Z,66.66
2023-03-02T07:13:40.566Z,66.61
2023-03-02T07:16:11.783Z,66.45
2023-03-02T07:18:40.508Z,66.66
2023-03-02T07:21:08.796Z,66.59
2023-03-02T07:23:37.174Z,66.80
2023-03-02T07:26:08.783Z,66.51
2023-03-02T07:28:43.417Z,66.51
2023-03-02T07:31:12.552Z,66.36
2023-03-02T07:33:41.145Z,66.55
2023-03-02T07:36:09.845Z,65.93
2023-03-02T07:38:38.954Z,65.44
2023-03-02T07:41:09.359Z,65.42
2023-03-02T07:43:38.068Z,65.07
2023-03-02T07:46:06.928Z,65.11
2023-03-02T07:48:35.768Z,64.82
2023-03-02T07:51:06.166Z,64.29
2023-03-02T07:53:34.382Z,63.96
2023-03-02T07:56:07.788Z,63.70
2023-03-02T07:58:36.664Z,63.55
2023-03-02T08:01:12.629Z,63.60
2023-03-02T08:03:46.526Z,63.19
2023-03-02T08:06:15.118Z,62.48
2023-03-02T08:08:43.310Z,62.38
2023-03-02T08:11:16.077Z,62.23
2023-03-02T08:13:44.893Z,61.93
2023-03-02T08:16:15.579Z,61.00
2023-03-02T08:18:44.346Z,60.94
2023-03-02T08:21:18.932Z,60.83
2023-03-02T08:23:47.823Z,59.99
2023-03-02T08:26:17.671Z,60.51
2023-03-02T08:28:46.952Z,59.95
2023-03-02T08:31:15.900Z,59.66
2023-03-02T08:33:46.402Z,59.92
2023-03-02T08:36:19.781Z,60.32
2023-03-02T08:38:49.628Z,59.93
2023-03-02T08:41:22.453Z,59.92
2023-03-02T08:43:54.282Z,59.60
2023-03-02T08:46:23.148Z,57.58
2023-03-02T08:48:51.856Z,58.61
2023-03-02T08:51:24.204Z,57.70
2023-03-02T08:54:14.273Z,57.80
2023-03-02T08:57:37.492Z,57.27
2023-03-02T09:00:19.796Z,57.67
2023-03-02T09:02:53.872Z,57.44
2023-03-02T09:05:25.390Z,56.19
2023-03-02T09:07:53.980Z,56.02
2023-03-02T09:10:22.364Z,55.81
2023-03-02T09:12:50.949Z,55.13
2023-03-02T09:15:19.339Z,54.40
2023-03-02T09:17:47.681Z,54.70
2023-03-02T09:20:30.206Z,54.70
2023-03-02T09:22:58.612Z,54.91
2023-03-02T09:25:27.107Z,54.61
2023-03-02T09:27:55.497Z,53.32
2023-03-02T09:30:23.976Z,52.69
2023-03-02T09:32:52.404Z,51.20
2023-03-02T09:35:20.900Z,49.46
2023-03-02T09:37:49.391Z,48.48
2023-03-02T09:40:23.844Z,47.72
2023-03-02T09:43:02.169Z,47.02
2023-03-02T09:45:49.795Z,46.09
2023-03-02T09:48:24.781Z,45.13
2023-03-02T09:51:10.307Z,43.32
2023-03-02T09:53:52.896Z,42.58
2023-03-02T09:56:28.469Z,43.02
2023-03-02T09:59:27.865Z,41.28
2023-03-02T10:02:16.717Z,41.22
2023-03-02T10:05:02.869Z,38.93
2023-03-02T10:07:39.098Z,39.01
2023-03-02T10:10:22.211Z,39.82
2023-03-02T10:13:17.690Z,38.36
2023-03-02T10:16:03.090Z,39.38
2023-03-02T10:19:13.234Z,39.80
2023-03-02T10:22:02.160Z,39.84
2023-03-02T10:25:01.606Z,39.55
2023-03-02T10:27:57.690Z,39.77
2023-03-02T10:30:43.344Z,39.12
2023-03-02T10:33:37.719Z,38.18
2023-03-02T10:36:22.373Z,36.73
2023-03-02T10:38:54.889Z,35.58
2023-03-02T10:41:29.461Z,35.40
2023-03-02T10:44:18.211Z,33.63
2023-03-02T10:46:47.754Z,31.57
2023-03-02T10:49:34.323Z,30.93
2023-03-02T10:52:08.638Z,30.72
2023-03-02T10:54:37.544Z,29.48
2023-03-02T10:57:31.700Z,30.97
2023-03-02T11:00:15.451Z,31.33
2023-03-02T11:02:52.830Z,32.04
2023-03-02T11:05:29.710Z,31.98
2023-03-02T11:08:06.692Z,31.59
2023-03-02T11:10:51.972Z,30.58
2023-03-02T11:13:27.009Z,31.38
2023-03-02T11:15:59.908Z,31.42
2023-03-02T11:18:37.699Z,31.60
2023-03-02T11:21:08.624Z,30.56
2023-03-02T11:24:05.153Z,30.92
2023-03-02T11:26:47.788Z,31.50
2023-03-02T11:29:28.020Z,31.87
2023-03-02T11:32:01.590Z,31.19
2023-03-02T11:34:54.576Z,30.89
2023-03-02T11:37:39.347Z,30.46
2023-03-02T11:40:37.388Z,30.81
2023-03-02T11:43:05.888Z,32.05
2023-03-02T11:45:38.308Z,32.03
2023-03-02T11:48:31.107Z,32.04
2023-03-02T11:51:03.464Z,32.49
2023-03-02T11:53:58.620Z,32.64
2023-03-02T11:56:31.862Z,31.72
2023-03-02T11:59:04.965Z,32.06
2023-03-02T12:01:36.447Z,32.08
2023-03-02T12:04:11.382Z,31.96
2023-03-02T12:06:42.346Z,30.74
2023-03-02T12:09:24.704Z,29.95
2023-03-02T12:12:00.541Z,31.15
2023-03-02T12:14:49.300Z,31.91
2023-03-02T12:17:31.394Z,31.86
2023-03-02T12:20:08.789Z,30.70
2023-03-02T12:22:38.089Z,29.98
2023-03-02T12:25:18.850Z,30.77
2023-03-02T12:27:50.306Z,31.09
2023-03-02T12:30:23.997Z,30.69
2023-03-02T12:33:19.872Z,31.24
2023-03-02T12:35:57.315Z,30.68
2023-03-02T12:38:31.239Z,30.88
2023-03-02T12:41:17.732Z,30.63
2023-03-02T12:43:55.591Z,29.65
2023-03-02T12:46:37.427Z,29.78
2023-03-02T12:49:13.948Z,29.76
2023-03-02T12:52:04.364Z,27.50
2023-03-02T12:54:34.911Z,28.12
2023-03-02T12:57:18.987Z,27.58
2023-03-02T12:59:55.965Z,26.81
2023-03-02T13:02:29.489Z,24.37
2023-03-02T13:05:00.633Z,23.70
2023-03-02T13:07:44.204Z,23.79
2023-03-02T13:10:36.313Z,23.19
2023-03-02T13:13:20.457Z,23.32
2023-03-02T13:16:06.688Z,23.03
2023-03-02T13:18:39.559Z,22.45
2023-03-02T13:21:13.269Z,21.73
2023-03-02T13:23:50.088Z,20.60
2023-03-02T13:26:40.601Z,20.35
2023-03-02T13:29:15.041Z,18.90
2023-03-02T13:31:43.464Z,19.68
2023-03-02T13:34:23.335Z,19.65
2023-03-02T13:36:52.069Z,19.82
2023-03-02T13:39:28.252Z,19.97
2023-03-02T13:41:59.061Z,19.10
2023-03-02T13:44:35.435Z,18.65
2023-03-02T13:47:04.232Z,18.67
2023-03-02T13:49:35.840Z,19.29
2023-03-02T13:52:22.892Z,19.53
2023-03-02T13:54:51.479Z,19.13
2023-03-02T13:57:30.572Z,18.87
2023-03-02T14:00:00.147Z,18.51
2023-03-02T14:02:30.663Z,18.33
2023-03-02T14:04:59.146Z,18.26
2023-03-02T14:07:27.629Z,17.81
2023-03-02T14:09:57.528Z,17.97
2023-03-02T14:12:29.617Z,18.33
2023-03-02T14:15:01.713Z,18.42
2023-03-02T14:17:30.577Z,17.23
2023-03-02T14:19:59.074Z,16.83
2023-03-02T14:22:29.812Z,17.45
2023-03-02T14:24:58.088Z,17.14
2023-03-02T14:27:30.162Z,16.67
2023-03-02T14:29:59.323Z,16.51
2023-03-02T14:32:28.307Z,17.02
2023-03-02T14:34:57.599Z,17.37
2023-03-02T14:37:29.133Z,17.47
2023-03-02T14:39:57.888Z,18.34
2023-03-02T14:42:26.397Z,19.11
2023-03-02T14:44:55.027Z,19.47
2023-03-02T14:47:24.404Z,20.14
2023-03-02T14:49:53.799Z,20.60
2023-03-02T14:52:38.467Z,19.78
2023-03-02T14:55:18.693Z,19.08
2023-03-02T14:57:51.602Z,19.76
2023-03-02T15:00:20.919Z,20.19
2023-03-02T15:02:49.637Z,20.71
2023-03-02T15:05:18.783Z,20.38
2023-03-02T15:07:47.495Z,20.44
2023-03-02T15:10:19.161Z,21.22
2023-03-02T15:12:47.442Z,21.77
2023-03-02T15:15:15.924Z,22.32
2023-03-02T15:17:44.106Z,23.70
2023-03-02T15:20:16.948Z,24.48
2023-03-02T15:22:45.482Z,25.88
2023-03-02T15:25:13.909Z,26.89
2023-03-02T15:27:43.068Z,27.73
2023-03-02T15:30:21.191Z,28.46
2023-03-02T15:32:49.365Z,28.83
2023-03-02T15:35:18.042Z,29.44
2023-03-02T15:37:46.740Z,29.99
2023-03-02T15:40:15.529Z,29.73
2023-03-02T15:42:43.805Z,29.77
2023-03-02T15:45:12.298Z,30.47
2023-03-02T15:47:41.185Z,31.25
2023-03-02T15:50:10.531Z,31.86
2023-03-02T15:52:38.794Z,31.72
2023-03-02T15:55:07.583Z,32.48
2023-03-02T15:58:36.467Z,32.84
2023-03-02T16:01:44.431Z,33.28
2023-03-02T16:04:12.703Z,33.45
2023-03-02T16:06:41.302Z,34.47
2023-03-02T16:09:10.516Z,35.24
2023-03-02T16:11:44.008Z,35.17
2023-03-02T16:14:15.754Z,35.92
2023-03-02T16:16:45.846Z,36.63
2023-03-02T16:19:18.990Z,36.52
2023-03-02T16:21:48.805Z,37.20
2023-03-02T16:24:17.235Z,37.21
2023-03-02T16:26:46.157Z,37.82
2023-03-02T16:29:14.644Z,38.08
2023-03-02T16:31:46.692Z,38.51
2023-03-02T16:34:15.434Z,38.92
2023-03-02T16:36:44.544Z,39.68
2023-03-02T16:39:13.632Z,40.06
2023-03-02T16:41:43.852Z,40.35
2023-03-02T16:44:16.323Z,40.99
2023-03-02T16:46:44.881Z,41.30
2023-03-02T16:49:14.748Z,41.83
2023-03-02T16:51:43.324Z,42.03
2023-03-02T16:54:16.216Z,42.13
2023-03-02T16:56:47.674Z,42.02
2023-03-02T16:59:16.687Z,42.51
2023-03-02T17:01:45.452Z,42.84
2023-03-02T17:04:14.196Z,43.01
2023-03-02T17:07:00.435Z,43.29
2023-03-02T17:09:30.585Z,43.90
2023-03-02T17:11:58.948Z,43.62
2023-03-02T17:14:28.151Z,43.79
2023-03-02T17:16:57.269Z,44.35
2023-03-02T17:19:32.716Z,44.98
2023-03-02T17:22:02.736Z,45.25
2023-03-02T17:24:31.814Z,45.51
2023-03-02T17:27:00.425Z,45.51
2023-03-02T17:29:28.907Z,45.76
2023-03-02T17:31:57.250Z,45.68
2023-03-02T17:34:28.832Z,45.49
2023-03-02T17:37:00.951Z,45.81
2023-03-02T17:39:29.898Z,46.10
2023-03-02T17:41:58.491Z,46.32
2023-03-02T17:44:27.722Z,46.47
2023-03-02T17:46:56.897Z,46.68
2023-03-02T17:49:25.383Z,46.93
2023-03-02T17:51:53.769Z,47.34
2023-03-02T17:54:22.459Z,47.28
2023-03-02T17:56:51.146Z,48.06
2023-03-02T17:59:19.851Z,48.47
2023-03-02T18:01:48.339Z,48.44
2023-03-02T18:04:16.585Z,48.81
2023-03-02T18:06:44.992Z,49.14
2023-03-02T18:09:13.480Z,48.96
2023-03-02T18:11:45.040Z,49.31
2023-03-02T18:14:16.503Z,49.83
2023-03-02T18:16:45.285Z,49.78
2023-03-02T18:19:13.871Z,50.03
2023-03-02T18:21:42.705Z,49.83
2023-03-02T18:24:11.358Z,49.76
2023-03-02T18:26:39.882Z,50.22
2023-03-02T18:29:08.241Z,50.22
2023-03-02T18:31:37.069Z,50.13
2023-03-02T18:34:05.822Z,50.07
2023-03-02T18:36:34.202Z,50.42
2023-03-02T18:39:04.138Z,50.54
2023-03-02T18:41:32.917Z,50.39
2023-03-02T18:44:01.599Z,51.14
2023-03-02T18:46:31.654Z,50.94
2023-03-02T18:49:01.167Z,51.05
2023-03-02T18:51:29.723Z,51.35
2023-03-02T18:53:58.116Z,51.53
2023-03-02T18:56:26.599Z,51.51
2023-03-02T18:58:55.301Z,51.62
2023-03-02T19:01:23.602Z,52.20
2023-03-02T19:03:53.386Z,52.33
2023-03-02T19:06:23.307Z,52.93
2023-03-02T19:08:52.208Z,53.01
2023-03-02T19:11:20.802Z,52.91
2023-03-02T19:13:49.487Z,53.25
2023-03-02T19:16:18.605Z,53.16
2023-03-02T19:18:48.746Z,52.98
2023-03-02T19:21:17.525Z,53.06
2023-03-02T19:23:46.636Z,53.49
2023-03-02T19:26:16.217Z,53.70
2023-03-02T19:28:44.815Z,53.73
2023-03-02T19:31:13.982Z,53.83
2023-03-02T19:33:45.102Z,53.82
2023-03-02T19:36:14.261Z,54.00
2023-03-02T19:38:44.671Z,54.33
2023-03-02T19:41:19.111Z,54.34
2023-03-02T19:43:47.909Z,54.35
2023-03-02T19:46:17.916Z,54.40
2023-03-02T19:48:46.309Z,54.47
2023-03-02T19:51:15.929Z,54.46
2023-03-02T19:53:46.253Z,54.99
2023-03-02T19:56:16.407Z,55.05
2023-03-02T19:58:49.925Z,55.13
2023-03-02T20:01:21.924Z,55.16
2023-03-02T20:03:52.756Z,55.05
2023-03-02T20:06:24.343Z,55.52
2023-03-02T20:08:52.825Z,55.75
2023-03-02T20:11:22.752Z,56.24
2023-03-02T20:13:52.980Z,56.33
2023-03-02T20:16:23.129Z,56.33
2023-03-02T20:18:52.763Z,56.54
2023-03-02T20:21:21.432Z,56.63
2023-03-02T20:23:50.247Z,56.71
2023-03-02T20:26:19.419Z,56.48
2023-03-02T20:28:48.464Z,56.68
2023-03-02T20:31:18.273Z,56.99
2023-03-02T20:33:50.288Z,57.09
2023-03-02T20:36:24.306Z,56.85
2023-03-02T20:39:08.948Z,56.93
2023-03-02T20:41:37.745Z,57.01
2023-03-02T20:44:06.640Z,57.27
2023-03-02T20:46:43.106Z,57.64
2023-03-02T20:49:15.340Z,57.53
2023-03-02T20:51:51.342Z,57.40
2023-03-02T20:54:22.794Z,57.78
2023-03-02T20:56:52.102Z,57.93
2023-03-02T20:59:21.500Z,58.18
2023-03-02T21:01:50.432Z,58.31
2023-03-02T21:04:18.982Z,58.38
2023-03-02T21:06:47.482Z,58.21
2023-03-02T21:09:18.084Z,58.54
2023-03-02T21:11:47.574Z,58.54
2023-03-02T21:14:16.223Z,58.77
2023-03-02T21:16:45.047Z,58.75
2023-03-02T21:19:16.969Z,58.74
2023-03-02T21:21:45.666Z,58.73
2023-03-02T21:24:17.076Z,58.82
2023-03-02T21:26:46.807Z,58.87
2023-03-02T21:29:16.831Z,58.77
2023-03-02T21:31:46.293Z,58.59
2023-03-02T21:34:16.113Z,58.90
2023-03-02T21:36:44.578Z,58.86
2023-03-02T21:39:14.142Z,59.17
2023-03-02T21:41:42.776Z,59.91
2023-03-02T21:44:11.770Z,60.40
2023-03-02T21:46:40.497Z,60.79
2023-03-02T21:49:09.259Z,61.17
2023-03-02T21:51:37.842Z,61.40
2023-03-02T21:54:06.057Z,61.63
2023-03-02T21:56:35.688Z,61.75
2023-03-02T21:59:04.529Z,62.18
2023-03-02T22:01:35.743Z,62.05
2023-03-02T22:04:04.476Z,61.80
2023-03-02T22:06:34.601Z,61.59
2023-03-02T22:09:04.326Z,61.75
2023-03-02T22:11:35.662Z,61.69
2023-03-02T22:14:15.229Z,61.79
2023-03-02T22:16:47.611Z,61.72
2023-03-02T22:19:27.090Z,61.93
2023-03-02T22:22:00.614Z,61.92
2023-03-02T22:24:31.608Z,62.04
2023-03-02T22:27:19.085Z,61.50
2023-03-02T22:29:48.353Z,61.52
2023-03-02T22:32:22.772Z,61.37
2023-03-02T22:34:59.285Z,61.41
2023-03-02T22:37:30.527Z,61.11
2023-03-02T22:40:17.234Z,61.08
2023-03-02T22:42:45.924Z,60.93
2023-03-02T22:45:22.249Z,60.74
2023-03-02T22:47:53.705Z,61.11
2023-03-02T22:50:28.482Z,60.95
2023-03-02T22:52:58.596Z,60.71
2023-03-02T22:55:42.344Z,60.90
2023-03-02T22:58:31.185Z,61.03
2023-03-02T23:01:01.890Z,61.16
2023-03-02T23:03:39.186Z,61.34
2023-03-02T23:06:24.767Z,61.20
2023-03-02T23:08:55.433Z,61.10
2023-03-02T23:11:26.164Z,60.95
2023-03-02T23:13:55.648Z,61.20
2023-03-02T23:16:27.477Z,61.09
2023-03-02T23:18:59.444Z,61.08
2023-03-02T23:21:48.763Z,61.31
2023-03-02T23:24:19.203Z,61.33
2023-03-02T23:26:51.573Z,61.54
2023-03-02T23:29:21.410Z,61.52
2023-03-02T23:31:50.265Z,61.43
2023-03-02T23:34:18.769Z,61.20
2023-03-02T23:36:47.158Z,61.85
2023-03-02T23:39:16.364Z,61.96
2023-03-02T23:41:44.947Z,62.24
2023-03-02T23:44:13.435Z,62.31
2023-03-02T23:46:42.740Z,62.29
2023-03-02T23:49:11.737Z,62.07
2023-03-02T23:51:40.408Z,62.23
2023-03-02T23:54:08.606Z,62.31
2023-03-02T23:56:36.993Z,62.49
2023-03-02T23:59:05.879Z,62.23
